sensor_id;sensor_type;location;lat;lon;timestamp;P1;durP1;ratioP1;P2;durP2;ratioP2
22164;SDS011;11248;52.512;13.520;2022-09-21T00:01:04;7.03;;;3.50;;
22164;SDS011;11248;52.512;13.520;2022-09-21T00:03:30;5.82;;;2.90;;
22164;SDS011;11248;52.512;13.520;2022-09-21T00:06:00;5.75;;;2.80;;
22164;SDS011;11248;52.512;13.520;2022-09-21T00:08:26;6.20;;;3.13;;
22164;SDS011;11248;52.512;13.520;2022-09-21T00:10:52;7.30;;;3.05;;
22164;SDS011;11248;52.512;13.520;2022-09-21T00:13:18;7.20;;;3.22;;
22164;SDS011;11248;52.512;13.520;2022-09-21T00:15:45;7.82;;;3.50;;
22164;SDS011;11248;52.512;13.520;2022-09-21T00:18:11;6.50;;;3.65;;
22164;SDS011;11248;52.512;13.520;2022-09-21T00:20:39;5.50;;;3.28;;
22164;SDS011;11248;52.512;13.520;2022-09-21T00:23:07;7.15;;;3.45;;
22164;SDS011;11248;52.512;13.520;2022-09-21T00:25:33;6.22;;;3.22;;
22164;SDS011;11248;52.512;13.520;2022-09-21T00:27:59;6.47;;;3.10;;
22164;SDS011;11248;52.512;13.520;2022-09-21T00:30:25;6.28;;;3.40;;
22164;SDS011;11248;52.512;13.520;2022-09-21T00:32:53;4.60;;;2.90;;
22164;SDS011;11248;52.512;13.520;2022-09-21T00:35:19;7.07;;;3.67;;
22164;SDS011;11248;52.512;13.520;2022-09-21T00:37:44;4.95;;;2.75;;
22164;SDS011;11248;52.512;13.520;2022-09-21T00:40:10;5.57;;;3.08;;
22164;SDS011;11248;52.512;13.520;2022-09-21T00:42:37;4.80;;;2.92;;
22164;SDS011;11248;52.512;13.520;2022-09-21T00:45:03;5.15;;;3.28;;
22164;SDS011;11248;52.512;13.520;2022-09-21T00:49:55;5.80;;;2.70;;
22164;SDS011;11248;52.512;13.520;2022-09-21T00:52:22;4.15;;;2.78;;
22164;SDS011;11248;52.512;13.520;2022-09-21T00:54:56;5.75;;;2.83;;
22164;SDS011;11248;52.512;13.520;2022-09-21T00:57:23;4.78;;;2.30;;
22164;SDS011;11248;52.512;13.520;2022-09-21T00:59:50;5.32;;;2.53;;
22164;SDS011;11248;52.512;13.520;2022-09-21T01:02:18;3.22;;;2.42;;
22164;SDS011;11248;52.512;13.520;2022-09-21T01:04:44;6.03;;;2.60;;
22164;SDS011;11248;52.512;13.520;2022-09-21T01:07:12;3.15;;;2.30;;
22164;SDS011;11248;52.512;13.520;2022-09-21T01:09:40;4.43;;;2.55;;
22164;SDS011;11248;52.512;13.520;2022-09-21T01:12:16;5.75;;;2.50;;
22164;SDS011;11248;52.512;13.520;2022-09-21T01:20:19;5.95;;;3.50;;
22164;SDS011;11248;52.512;13.520;2022-09-21T01:23:11;5.18;;;3.00;;
22164;SDS011;11248;52.512;13.520;2022-09-21T01:28:15;5.70;;;2.60;;
22164;SDS011;11248;52.512;13.520;2022-09-21T01:30:44;5.65;;;2.80;;
22164;SDS011;11248;52.512;13.520;2022-09-21T01:33:14;3.72;;;2.53;;
22164;SDS011;11248;52.512;13.520;2022-09-21T01:35:43;5.65;;;2.72;;
22164;SDS011;11248;52.512;13.520;2022-09-21T01:38:18;5.18;;;2.42;;
22164;SDS011;11248;52.512;13.520;2022-09-21T01:40:48;4.07;;;2.78;;
22164;SDS011;11248;52.512;13.520;2022-09-21T01:43:35;4.63;;;2.60;;
22164;SDS011;11248;52.512;13.520;2022-09-21T01:46:02;4.93;;;2.30;;
22164;SDS011;11248;52.512;13.520;2022-09-21T01:48:32;4.65;;;2.65;;
22164;SDS011;11248;52.512;13.520;2022-09-21T01:50:59;4.88;;;2.50;;
22164;SDS011;11248;52.512;13.520;2022-09-21T01:53:29;4.63;;;2.78;;
22164;SDS011;11248;52.512;13.520;2022-09-21T01:56:12;4.88;;;2.13;;
22164;SDS011;11248;52.512;13.520;2022-09-21T01:58:41;3.33;;;1.80;;
22164;SDS011;11248;52.512;13.520;2022-09-21T02:01:11;4.38;;;1.90;;
22164;SDS011;11248;52.512;13.520;2022-09-21T02:03:38;3.97;;;1.92;;
22164;SDS011;11248;52.512;13.520;2022-09-21T02:06:06;2.70;;;1.88;;
22164;SDS011;11248;52.512;13.520;2022-09-21T02:08:32;3.78;;;2.13;;
22164;SDS011;11248;52.512;13.520;2022-09-21T02:11:02;4.40;;;2.05;;
22164;SDS011;11248;52.512;13.520;2022-09-21T02:13:33;2.72;;;1.90;;
22164;SDS011;11248;52.512;13.520;2022-09-21T02:18:35;4.78;;;2.35;;
22164;SDS011;11248;52.512;13.520;2022-09-21T02:21:04;4.53;;;2.20;;
22164;SDS011;11248;52.512;13.520;2022-09-21T02:23:43;3.30;;;2.20;;
22164;SDS011;11248;52.512;13.520;2022-09-21T02:26:11;4.38;;;2.13;;
22164;SDS011;11248;52.512;13.520;2022-09-21T02:28:42;4.50;;;2.13;;
22164;SDS011;11248;52.512;13.520;2022-09-21T02:31:23;4.55;;;2.13;;
22164;SDS011;11248;52.512;13.520;2022-09-21T02:33:56;4.95;;;2.60;;
22164;SDS011;11248;52.512;13.520;2022-09-21T02:36:35;4.88;;;2.45;;
22164;SDS011;11248;52.512;13.520;2022-09-21T02:39:05;3.95;;;2.53;;
22164;SDS011;11248;52.512;13.520;2022-09-21T02:44:11;4.93;;;2.50;;
22164;SDS011;11248;52.512;13.520;2022-09-21T02:46:48;4.68;;;2.42;;
22164;SDS011;11248;52.512;13.520;2022-09-21T02:49:18;4.55;;;2.47;;
22164;SDS011;11248;52.512;13.520;2022-09-21T02:51:49;4.22;;;2.72;;
22164;SDS011;11248;52.512;13.520;2022-09-21T02:54:17;5.47;;;2.97;;
22164;SDS011;11248;52.512;13.520;2022-09-21T02:56:45;5.20;;;2.70;;
22164;SDS011;11248;52.512;13.520;2022-09-21T02:59:13;5.40;;;2.40;;
22164;SDS011;11248;52.512;13.520;2022-09-21T03:01:39;5.88;;;2.65;;
22164;SDS011;11248;52.512;13.520;2022-09-21T03:04:05;5.60;;;2.75;;
22164;SDS011;11248;52.512;13.520;2022-09-21T03:06:31;4.03;;;2.50;;
22164;SDS011;11248;52.512;13.520;2022-09-21T03:08:58;5.00;;;2.30;;
22164;SDS011;11248;52.512;13.520;2022-09-21T03:11:24;4.18;;;2.80;;
22164;SDS011;11248;52.512;13.520;2022-09-21T03:13:50;3.53;;;2.30;;
22164;SDS011;11248;52.512;13.520;2022-09-21T03:16:16;4.47;;;2.38;;
22164;SDS011;11248;52.512;13.520;2022-09-21T03:18:42;4.80;;;2.80;;
22164;SDS011;11248;52.512;13.520;2022-09-21T03:21:08;3.72;;;2.40;;
22164;SDS011;11248;52.512;13.520;2022-09-21T03:23:34;5.95;;;2.60;;
22164;SDS011;11248;52.512;13.520;2022-09-21T03:26:00;4.07;;;2.53;;
22164;SDS011;11248;52.512;13.520;2022-09-21T03:28:26;3.58;;;2.50;;
22164;SDS011;11248;52.512;13.520;2022-09-21T03:30:52;3.55;;;2.50;;
22164;SDS011;11248;52.512;13.520;2022-09-21T03:33:18;4.30;;;2.60;;
22164;SDS011;11248;52.512;13.520;2022-09-21T03:35:46;4.70;;;2.45;;
22164;SDS011;11248;52.512;13.520;2022-09-21T03:38:12;3.95;;;2.30;;
22164;SDS011;11248;52.512;13.520;2022-09-21T03:40:38;4.00;;;2.20;;
22164;SDS011;11248;52.512;13.520;2022-09-21T03:43:04;3.90;;;2.25;;
22164;SDS011;11248;52.512;13.520;2022-09-21T03:45:30;4.53;;;2.20;;
22164;SDS011;11248;52.512;13.520;2022-09-21T03:47:56;3.80;;;2.25;;
22164;SDS011;11248;52.512;13.520;2022-09-21T03:50:23;3.60;;;2.33;;
22164;SDS011;11248;52.512;13.520;2022-09-21T03:52:49;3.72;;;2.50;;
22164;SDS011;11248;52.512;13.520;2022-09-21T03:55:15;5.53;;;2.80;;
22164;SDS011;11248;52.512;13.520;2022-09-21T03:57:41;5.45;;;2.88;;
22164;SDS011;11248;52.512;13.520;2022-09-21T04:00:07;4.88;;;2.90;;
22164;SDS011;11248;52.512;13.520;2022-09-21T04:02:34;6.28;;;2.90;;
22164;SDS011;11248;52.512;13.520;2022-09-21T04:05:00;4.78;;;2.83;;
22164;SDS011;11248;52.512;13.520;2022-09-21T04:07:29;5.60;;;2.75;;
22164;SDS011;11248;52.512;13.520;2022-09-21T04:09:58;4.90;;;3.20;;
22164;SDS011;11248;52.512;13.520;2022-09-21T04:12:24;6.57;;;2.85;;
22164;SDS011;11248;52.512;13.520;2022-09-21T04:14:50;5.63;;;3.40;;
22164;SDS011;11248;52.512;13.520;2022-09-21T04:17:16;7.03;;;3.00;;
22164;SDS011;11248;52.512;13.520;2022-09-21T04:19:41;5.18;;;2.80;;
22164;SDS011;11248;52.512;13.520;2022-09-21T04:22:09;5.00;;;2.80;;
22164;SDS011;11248;52.512;13.520;2022-09-21T04:24:36;5.40;;;3.13;;
22164;SDS011;11248;52.512;13.520;2022-09-21T04:27:05;6.63;;;3.50;;
22164;SDS011;11248;52.512;13.520;2022-09-21T04:29:31;4.95;;;2.80;;
22164;SDS011;11248;52.512;13.520;2022-09-21T04:31:57;4.47;;;3.15;;
22164;SDS011;11248;52.512;13.520;2022-09-21T04:34:22;8.07;;;3.10;;
22164;SDS011;11248;52.512;13.520;2022-09-21T04:36:48;5.47;;;2.97;;
22164;SDS011;11248;52.512;13.520;2022-09-21T04:39:14;7.53;;;3.60;;
22164;SDS011;11248;52.512;13.520;2022-09-21T04:41:40;8.63;;;3.88;;
22164;SDS011;11248;52.512;13.520;2022-09-21T04:44:06;7.35;;;3.20;;
22164;SDS011;11248;52.512;13.520;2022-09-21T04:46:32;5.30;;;3.00;;
22164;SDS011;11248;52.512;13.520;2022-09-21T04:48:58;5.13;;;3.17;;
22164;SDS011;11248;52.512;13.520;2022-09-21T04:51:24;5.68;;;3.30;;
22164;SDS011;11248;52.512;13.520;2022-09-21T04:53:50;7.15;;;3.25;;
22164;SDS011;11248;52.512;13.520;2022-09-21T04:56:16;6.57;;;3.33;;
22164;SDS011;11248;52.512;13.520;2022-09-21T04:58:42;6.82;;;3.05;;
22164;SDS011;11248;52.512;13.520;2022-09-21T05:01:08;4.88;;;2.65;;
22164;SDS011;11248;52.512;13.520;2022-09-21T05:03:35;9.80;;;3.15;;
22164;SDS011;11248;52.512;13.520;2022-09-21T05:06:01;6.43;;;3.10;;
22164;SDS011;11248;52.512;13.520;2022-09-21T05:08:27;7.10;;;3.30;;
22164;SDS011;11248;52.512;13.520;2022-09-21T05:11:13;5.45;;;2.88;;
22164;SDS011;11248;52.512;13.520;2022-09-21T05:13:40;4.68;;;3.03;;
22164;SDS011;11248;52.512;13.520;2022-09-21T05:16:06;5.05;;;2.97;;
22164;SDS011;11248;52.512;13.520;2022-09-21T05:18:32;4.93;;;3.25;;
22164;SDS011;11248;52.512;13.520;2022-09-21T05:20:59;5.07;;;2.80;;
22164;SDS011;11248;52.512;13.520;2022-09-21T05:23:26;5.20;;;3.10;;
22164;SDS011;11248;52.512;13.520;2022-09-21T05:25:53;6.93;;;3.33;;
22164;SDS011;11248;52.512;13.520;2022-09-21T05:28:19;5.47;;;3.25;;
22164;SDS011;11248;52.512;13.520;2022-09-21T05:33:31;5.57;;;3.20;;
22164;SDS011;11248;52.512;13.520;2022-09-21T05:38:54;5.70;;;3.15;;
22164;SDS011;11248;52.512;13.520;2022-09-21T05:41:20;6.65;;;3.38;;
22164;SDS011;11248;52.512;13.520;2022-09-21T05:43:46;6.82;;;3.20;;
22164;SDS011;11248;52.512;13.520;2022-09-21T05:46:16;7.78;;;4.05;;
22164;SDS011;11248;52.512;13.520;2022-09-21T05:48:48;13.68;;;7.00;;
22164;SDS011;11248;52.512;13.520;2022-09-21T05:51:23;14.70;;;8.95;;
22164;SDS011;11248;52.512;13.520;2022-09-21T05:56:52;9.25;;;4.90;;
22164;SDS011;11248;52.512;13.520;2022-09-21T05:59:29;8.07;;;4.55;;
22164;SDS011;11248;52.512;13.520;2022-09-21T06:02:03;7.35;;;4.10;;
22164;SDS011;11248;52.512;13.520;2022-09-21T06:04:30;9.82;;;4.85;;
22164;SDS011;11248;52.512;13.520;2022-09-21T06:06:55;7.20;;;4.68;;
22164;SDS011;11248;52.512;13.520;2022-09-21T06:09:21;10.90;;;4.70;;
22164;SDS011;11248;52.512;13.520;2022-09-21T06:11:49;6.53;;;4.95;;
22164;SDS011;11248;52.512;13.520;2022-09-21T06:14:15;7.75;;;5.07;;
22164;SDS011;11248;52.512;13.520;2022-09-21T06:16:48;7.72;;;4.80;;
22164;SDS011;11248;52.512;13.520;2022-09-21T06:19:14;10.20;;;5.70;;
22164;SDS011;11248;52.512;13.520;2022-09-21T06:21:40;8.40;;;5.22;;
22164;SDS011;11248;52.512;13.520;2022-09-21T06:24:06;10.32;;;4.80;;
22164;SDS011;11248;52.512;13.520;2022-09-21T06:26:32;8.63;;;5.63;;
22164;SDS011;11248;52.512;13.520;2022-09-21T06:28:58;4.80;;;3.63;;
22164;SDS011;11248;52.512;13.520;2022-09-21T06:31:25;8.45;;;4.28;;
22164;SDS011;11248;52.512;13.520;2022-09-21T06:33:51;7.28;;;4.32;;
22164;SDS011;11248;52.512;13.520;2022-09-21T06:36:17;4.95;;;3.28;;
22164;SDS011;11248;52.512;13.520;2022-09-21T06:38:43;5.85;;;3.75;;
22164;SDS011;11248;52.512;13.520;2022-09-21T06:41:09;10.50;;;4.10;;
22164;SDS011;11248;52.512;13.520;2022-09-21T06:43:35;6.53;;;4.22;;
22164;SDS011;11248;52.512;13.520;2022-09-21T06:46:01;7.43;;;3.60;;
22164;SDS011;11248;52.512;13.520;2022-09-21T06:48:27;7.05;;;3.70;;
22164;SDS011;11248;52.512;13.520;2022-09-21T06:50:57;3.97;;;3.13;;
22164;SDS011;11248;52.512;13.520;2022-09-21T06:53:23;9.82;;;3.60;;
22164;SDS011;11248;52.512;13.520;2022-09-21T06:55:49;6.25;;;3.33;;
22164;SDS011;11248;52.512;13.520;2022-09-21T06:58:16;7.53;;;3.80;;
22164;SDS011;11248;52.512;13.520;2022-09-21T07:00:42;8.50;;;3.95;;
22164;SDS011;11248;52.512;13.520;2022-09-21T07:03:11;8.25;;;3.65;;
22164;SDS011;11248;52.512;13.520;2022-09-21T07:05:43;7.05;;;3.95;;
22164;SDS011;11248;52.512;13.520;2022-09-21T07:08:09;14.52;;;4.65;;
22164;SDS011;11248;52.512;13.520;2022-09-21T07:10:34;4.55;;;3.08;;
22164;SDS011;11248;52.512;13.520;2022-09-21T07:13:01;6.80;;;3.35;;
22164;SDS011;11248;52.512;13.520;2022-09-21T07:15:27;5.82;;;3.28;;
22164;SDS011;11248;52.512;13.520;2022-09-21T07:17:54;5.70;;;3.55;;
22164;SDS011;11248;52.512;13.520;2022-09-21T07:20:20;9.10;;;3.83;;
22164;SDS011;11248;52.512;13.520;2022-09-21T07:22:46;6.35;;;4.70;;
22164;SDS011;11248;52.512;13.520;2022-09-21T07:25:12;8.25;;;3.80;;
22164;SDS011;11248;52.512;13.520;2022-09-21T07:27:38;7.93;;;3.38;;
22164;SDS011;11248;52.512;13.520;2022-09-21T07:30:04;4.85;;;3.13;;
22164;SDS011;11248;52.512;13.520;2022-09-21T07:32:31;5.57;;;2.90;;
22164;SDS011;11248;52.512;13.520;2022-09-21T07:34:57;4.97;;;3.17;;
22164;SDS011;11248;52.512;13.520;2022-09-21T07:37:23;6.57;;;3.08;;
22164;SDS011;11248;52.512;13.520;2022-09-21T07:39:49;7.80;;;3.33;;
22164;SDS011;11248;52.512;13.520;2022-09-21T07:42:16;5.85;;;3.28;;
22164;SDS011;11248;52.512;13.520;2022-09-21T07:44:43;6.45;;;3.15;;
22164;SDS011;11248;52.512;13.520;2022-09-21T07:47:10;4.63;;;3.28;;
22164;SDS011;11248;52.512;13.520;2022-09-21T07:49:37;7.30;;;3.03;;
22164;SDS011;11248;52.512;13.520;2022-09-21T07:52:03;4.70;;;2.83;;
22164;SDS011;11248;52.512;13.520;2022-09-21T07:54:29;3.78;;;2.88;;
22164;SDS011;11248;52.512;13.520;2022-09-21T07:56:56;18.63;;;6.97;;
22164;SDS011;11248;52.512;13.520;2022-09-21T07:59:40;16.85;;;7.68;;
22164;SDS011;11248;52.512;13.520;2022-09-21T08:02:06;14.57;;;8.02;;
22164;SDS011;11248;52.512;13.520;2022-09-21T08:04:32;13.95;;;6.80;;
22164;SDS011;11248;52.512;13.520;2022-09-21T08:06:58;7.72;;;4.30;;
22164;SDS011;11248;52.512;13.520;2022-09-21T08:09:24;7.38;;;4.50;;
22164;SDS011;11248;52.512;13.520;2022-09-21T08:11:50;26.45;;;9.93;;
22164;SDS011;11248;52.512;13.520;2022-09-21T08:14:17;10.18;;;5.00;;
22164;SDS011;11248;52.512;13.520;2022-09-21T08:16:44;13.63;;;6.72;;
22164;SDS011;11248;52.512;13.520;2022-09-21T08:19:10;11.55;;;4.93;;
22164;SDS011;11248;52.512;13.520;2022-09-21T08:21:36;5.88;;;3.47;;
22164;SDS011;11248;52.512;13.520;2022-09-21T08:24:02;10.10;;;4.70;;
22164;SDS011;11248;52.512;13.520;2022-09-21T08:26:28;5.55;;;3.65;;
22164;SDS011;11248;52.512;13.520;2022-09-21T08:28:54;5.20;;;3.20;;
22164;SDS011;11248;52.512;13.520;2022-09-21T08:31:22;4.68;;;2.80;;
22164;SDS011;11248;52.512;13.520;2022-09-21T08:33:48;4.70;;;2.40;;
22164;SDS011;11248;52.512;13.520;2022-09-21T08:36:14;5.45;;;2.97;;
22164;SDS011;11248;52.512;13.520;2022-09-21T08:38:40;6.32;;;3.42;;
22164;SDS011;11248;52.512;13.520;2022-09-21T08:41:13;7.00;;;2.85;;
22164;SDS011;11248;52.512;13.520;2022-09-21T08:43:41;4.30;;;2.50;;
22164;SDS011;11248;52.512;13.520;2022-09-21T08:46:18;4.32;;;2.63;;
22164;SDS011;11248;52.512;13.520;2022-09-21T08:48:46;5.43;;;2.85;;
22164;SDS011;11248;52.512;13.520;2022-09-21T08:51:14;5.78;;;2.78;;
22164;SDS011;11248;52.512;13.520;2022-09-21T08:53:43;7.72;;;2.90;;
22164;SDS011;11248;52.512;13.520;2022-09-21T08:56:13;6.28;;;3.03;;
22164;SDS011;11248;52.512;13.520;2022-09-21T08:58:39;6.93;;;3.05;;
22164;SDS011;11248;52.512;13.520;2022-09-21T09:03:34;5.05;;;2.55;;
22164;SDS011;11248;52.512;13.520;2022-09-21T09:06:09;6.95;;;3.10;;
22164;SDS011;11248;52.512;13.520;2022-09-21T09:13:45;5.30;;;2.83;;
22164;SDS011;11248;52.512;13.520;2022-09-21T09:16:17;5.28;;;2.40;;
22164;SDS011;11248;52.512;13.520;2022-09-21T09:18:52;4.00;;;2.60;;
22164;SDS011;11248;52.512;13.520;2022-09-21T09:21:31;6.45;;;2.72;;
22164;SDS011;11248;52.512;13.520;2022-09-21T09:24:05;6.50;;;2.72;;
22164;SDS011;11248;52.512;13.520;2022-09-21T09:29:06;3.53;;;2.40;;
22164;SDS011;11248;52.512;13.520;2022-09-21T09:31:37;3.58;;;2.00;;
22164;SDS011;11248;52.512;13.520;2022-09-21T09:34:08;5.57;;;2.13;;
22164;SDS011;11248;52.512;13.520;2022-09-21T09:36:35;4.00;;;2.40;;
22164;SDS011;11248;52.512;13.520;2022-09-21T09:39:04;4.68;;;2.13;;
22164;SDS011;11248;52.512;13.520;2022-09-21T09:41:43;3.95;;;2.45;;
22164;SDS011;11248;52.512;13.520;2022-09-21T09:44:27;6.90;;;2.53;;
22164;SDS011;11248;52.512;13.520;2022-09-21T09:46:58;3.17;;;2.13;;
22164;SDS011;11248;52.512;13.520;2022-09-21T09:49:32;5.07;;;1.95;;
22164;SDS011;11248;52.512;13.520;2022-09-21T09:52:01;3.22;;;2.13;;
22164;SDS011;11248;52.512;13.520;2022-09-21T09:54:28;3.85;;;2.38;;
22164;SDS011;11248;52.512;13.520;2022-09-21T09:56:54;5.07;;;2.28;;
22164;SDS011;11248;52.512;13.520;2022-09-21T09:59:29;3.17;;;1.90;;
22164;SDS011;11248;52.512;13.520;2022-09-21T10:01:57;3.13;;;1.98;;
22164;SDS011;11248;52.512;13.520;2022-09-21T10:04:24;3.20;;;2.00;;
22164;SDS011;11248;52.512;13.520;2022-09-21T10:06:50;4.35;;;1.98;;
22164;SDS011;11248;52.512;13.520;2022-09-21T10:09:32;3.97;;;1.65;;
22164;SDS011;11248;52.512;13.520;2022-09-21T10:12:00;3.60;;;1.50;;
22164;SDS011;11248;52.512;13.520;2022-09-21T10:14:27;4.60;;;1.63;;
22164;SDS011;11248;52.512;13.520;2022-09-21T10:16:55;2.33;;;1.33;;
22164;SDS011;11248;52.512;13.520;2022-09-21T10:19:25;5.47;;;2.00;;
22164;SDS011;11248;52.512;13.520;2022-09-21T10:21:59;2.65;;;1.23;;
22164;SDS011;11248;52.512;13.520;2022-09-21T10:24:27;1.50;;;1.20;;
22164;SDS011;11248;52.512;13.520;2022-09-21T10:26:54;2.25;;;1.30;;
22164;SDS011;11248;52.512;13.520;2022-09-21T10:31:52;2.88;;;1.20;;
22164;SDS011;11248;52.512;13.520;2022-09-21T10:34:19;1.80;;;1.17;;
22164;SDS011;11248;52.512;13.520;2022-09-21T10:36:49;1.85;;;1.27;;
22164;SDS011;11248;52.512;13.520;2022-09-21T10:39:20;2.13;;;1.30;;
22164;SDS011;11248;52.512;13.520;2022-09-21T10:41:56;1.75;;;1.20;;
22164;SDS011;11248;52.512;13.520;2022-09-21T10:44:24;2.72;;;1.73;;
22164;SDS011;11248;52.512;13.520;2022-09-21T10:46:51;2.90;;;1.35;;
22164;SDS011;11248;52.512;13.520;2022-09-21T10:49:22;1.58;;;1.25;;
22164;SDS011;11248;52.512;13.520;2022-09-21T10:51:49;2.45;;;1.23;;
22164;SDS011;11248;52.512;13.520;2022-09-21T10:54:17;3.03;;;1.38;;
22164;SDS011;11248;52.512;13.520;2022-09-21T10:56:49;3.90;;;0.88;;
22164;SDS011;11248;52.512;13.520;2022-09-21T10:59:26;4.68;;;1.13;;
22164;SDS011;11248;52.512;13.520;2022-09-21T11:01:57;2.00;;;1.27;;
22164;SDS011;11248;52.512;13.520;2022-09-21T11:04:27;1.45;;;1.20;;
22164;SDS011;11248;52.512;13.520;2022-09-21T11:07:00;3.10;;;1.33;;
22164;SDS011;11248;52.512;13.520;2022-09-21T11:09:30;1.35;;;0.90;;
22164;SDS011;11248;52.512;13.520;2022-09-21T11:12:02;1.27;;;0.88;;
22164;SDS011;11248;52.512;13.520;2022-09-21T11:14:48;4.13;;;0.95;;
22164;SDS011;11248;52.512;13.520;2022-09-21T11:17:19;1.25;;;0.80;;
22164;SDS011;11248;52.512;13.520;2022-09-21T11:19:53;1.88;;;0.80;;
22164;SDS011;11248;52.512;13.520;2022-09-21T11:22:33;1.48;;;1.08;;
22164;SDS011;11248;52.512;13.520;2022-09-21T11:26:02;1.85;;;0.90;;
22164;SDS011;11248;52.512;13.520;2022-09-21T11:28:09;2.60;;;0.70;;
22164;SDS011;11248;52.512;13.520;2022-09-21T11:30:42;1.23;;;0.60;;
22164;SDS011;11248;52.512;13.520;2022-09-21T11:33:24;1.77;;;0.90;;
22164;SDS011;11248;52.512;13.520;2022-09-21T11:35:55;0.80;;;0.57;;
22164;SDS011;11248;52.512;13.520;2022-09-21T11:38:31;0.47;;;0.47;;
22164;SDS011;11248;52.512;13.520;2022-09-21T11:41:02;1.98;;;0.60;;
22164;SDS011;11248;52.512;13.520;2022-09-21T11:46:24;0.85;;;0.70;;
22164;SDS011;11248;52.512;13.520;2022-09-21T11:51:27;0.82;;;0.70;;
22164;SDS011;11248;52.512;13.520;2022-09-21T11:54:11;1.98;;;0.63;;
22164;SDS011;11248;52.512;13.520;2022-09-21T11:56:43;0.90;;;0.63;;
22164;SDS011;11248;52.512;13.520;2022-09-21T11:59:28;0.70;;;0.65;;
22164;SDS011;11248;52.512;13.520;2022-09-21T12:12:37;1.77;;;0.80;;
22164;SDS011;11248;52.512;13.520;2022-09-21T12:20:00;1.33;;;0.80;;
22164;SDS011;11248;52.512;13.520;2022-09-21T12:22:32;0.75;;;0.60;;
22164;SDS011;11248;52.512;13.520;2022-09-21T12:25:11;1.05;;;0.70;;
22164;SDS011;11248;52.512;13.520;2022-09-21T12:30:36;1.15;;;0.80;;
22164;SDS011;11248;52.512;13.520;2022-09-21T12:36:38;1.15;;;0.68;;
22164;SDS011;11248;52.512;13.520;2022-09-21T12:41:52;0.43;;;0.32;;
22164;SDS011;11248;52.512;13.520;2022-09-21T12:44:27;0.98;;;0.52;;
22164;SDS011;11248;52.512;13.520;2022-09-21T12:47:08;1.73;;;0.47;;
22164;SDS011;11248;52.512;13.520;2022-09-21T12:49:42;0.75;;;0.55;;
22164;SDS011;11248;52.512;13.520;2022-09-21T12:54:44;1.20;;;0.40;;
22164;SDS011;11248;52.512;13.520;2022-09-21T12:59:53;1.35;;;0.57;;
22164;SDS011;11248;52.512;13.520;2022-09-21T13:05:14;3.53;;;0.60;;
22164;SDS011;11248;52.512;13.520;2022-09-21T13:07:47;1.08;;;0.70;;
22164;SDS011;11248;52.512;13.520;2022-09-21T13:12:41;1.15;;;0.70;;
22164;SDS011;11248;52.512;13.520;2022-09-21T13:15:15;1.77;;;0.90;;
22164;SDS011;11248;52.512;13.520;2022-09-21T13:17:43;0.65;;;0.63;;
22164;SDS011;11248;52.512;13.520;2022-09-21T13:20:17;5.88;;;1.08;;
22164;SDS011;11248;52.512;13.520;2022-09-21T13:22:44;0.82;;;0.60;;
22164;SDS011;11248;52.512;13.520;2022-09-21T13:25:20;1.50;;;0.60;;
22164;SDS011;11248;52.512;13.520;2022-09-21T13:30:33;2.00;;;0.50;;
22164;SDS011;11248;52.512;13.520;2022-09-21T13:33:00;0.82;;;0.80;;
22164;SDS011;11248;52.512;13.520;2022-09-21T13:38:29;0.43;;;0.40;;
22164;SDS011;11248;52.512;13.520;2022-09-21T13:41:03;0.38;;;0.38;;
22164;SDS011;11248;52.512;13.520;2022-09-21T13:46:45;1.75;;;0.50;;
22164;SDS011;11248;52.512;13.520;2022-09-21T13:49:04;0.40;;;0.40;;
22164;SDS011;11248;52.512;13.520;2022-09-21T13:51:49;0.50;;;0.50;;
22164;SDS011;11248;52.512;13.520;2022-09-21T13:54:16;0.88;;;0.60;;
22164;SDS011;11248;52.512;13.520;2022-09-21T13:56:43;1.02;;;0.50;;
22164;SDS011;11248;52.512;13.520;2022-09-21T13:59:18;0.75;;;0.52;;
22164;SDS011;11248;52.512;13.520;2022-09-21T14:01:46;0.73;;;0.50;;
22164;SDS011;11248;52.512;13.520;2022-09-21T14:04:18;0.60;;;0.60;;
22164;SDS011;11248;52.512;13.520;2022-09-21T14:06:46;1.00;;;0.70;;
22164;SDS011;11248;52.512;13.520;2022-09-21T14:09:26;1.02;;;0.60;;
22164;SDS011;11248;52.512;13.520;2022-09-21T14:11:54;1.65;;;0.52;;
22164;SDS011;11248;52.512;13.520;2022-09-21T14:14:30;0.43;;;0.43;;
22164;SDS011;11248;52.512;13.520;2022-09-21T14:16:57;1.20;;;0.65;;
22164;SDS011;11248;52.512;13.520;2022-09-21T14:24:39;0.73;;;0.50;;
22164;SDS011;11248;52.512;13.520;2022-09-21T14:29:52;0.50;;;0.47;;
22164;SDS011;11248;52.512;13.520;2022-09-21T14:32:21;0.30;;;0.30;;
22164;SDS011;11248;52.512;13.520;2022-09-21T14:34:49;0.93;;;0.47;;
22164;SDS011;11248;52.512;13.520;2022-09-21T14:37:27;0.80;;;0.57;;
22164;SDS011;11248;52.512;13.520;2022-09-21T14:39:55;0.77;;;0.50;;
22164;SDS011;11248;52.512;13.520;2022-09-21T14:42:22;0.38;;;0.38;;
22164;SDS011;11248;52.512;13.520;2022-09-21T14:44:51;0.50;;;0.50;;
22164;SDS011;11248;52.512;13.520;2022-09-21T14:47:24;0.45;;;0.45;;
22164;SDS011;11248;52.512;13.520;2022-09-21T14:52:43;0.30;;;0.30;;
22164;SDS011;11248;52.512;13.520;2022-09-21T14:55:30;0.75;;;0.70;;
22164;SDS011;11248;52.512;13.520;2022-09-21T14:58:03;0.47;;;0.40;;
22164;SDS011;11248;52.512;13.520;2022-09-21T15:00:36;0.65;;;0.65;;
22164;SDS011;11248;52.512;13.520;2022-09-21T15:05:51;1.48;;;1.00;;
22164;SDS011;11248;52.512;13.520;2022-09-21T15:08:41;0.60;;;0.60;;
22164;SDS011;11248;52.512;13.520;2022-09-21T15:11:30;0.82;;;0.55;;
22164;SDS011;11248;52.512;13.520;2022-09-21T15:16:38;0.45;;;0.45;;
22164;SDS011;11248;52.512;13.520;2022-09-21T15:21:39;0.60;;;0.60;;
22164;SDS011;11248;52.512;13.520;2022-09-21T15:24:49;0.70;;;0.70;;
22164;SDS011;11248;52.512;13.520;2022-09-21T15:27:08;0.50;;;0.50;;
22164;SDS011;11248;52.512;13.520;2022-09-21T15:29:36;0.65;;;0.50;;
22164;SDS011;11248;52.512;13.520;2022-09-21T15:32:04;0.57;;;0.40;;
22164;SDS011;11248;52.512;13.520;2022-09-21T15:34:30;0.70;;;0.60;;
22164;SDS011;11248;52.512;13.520;2022-09-21T15:39:58;0.95;;;0.70;;
22164;SDS011;11248;52.512;13.520;2022-09-21T15:42:25;1.15;;;1.02;;
22164;SDS011;11248;52.512;13.520;2022-09-21T15:44:53;2.00;;;1.10;;
22164;SDS011;11248;52.512;13.520;2022-09-21T15:47:29;1.02;;;0.93;;
22164;SDS011;11248;52.512;13.520;2022-09-21T15:49:55;1.10;;;0.60;;
22164;SDS011;11248;52.512;13.520;2022-09-21T15:52:25;1.92;;;0.60;;
22164;SDS011;11248;52.512;13.520;2022-09-21T15:55:00;1.15;;;0.43;;
22164;SDS011;11248;52.512;13.520;2022-09-21T15:57:38;0.52;;;0.52;;
22164;SDS011;11248;52.512;13.520;2022-09-21T16:00:27;0.57;;;0.45;;
22164;SDS011;11248;52.512;13.520;2022-09-21T16:02:56;0.57;;;0.50;;
22164;SDS011;11248;52.512;13.520;2022-09-21T16:05:28;0.35;;;0.35;;
22164;SDS011;11248;52.512;13.520;2022-09-21T16:11:16;0.52;;;0.52;;
22164;SDS011;11248;52.512;13.520;2022-09-21T16:13:43;1.15;;;0.70;;
22164;SDS011;11248;52.512;13.520;2022-09-21T16:16:28;0.60;;;0.60;;
22164;SDS011;11248;52.512;13.520;2022-09-21T16:18:54;0.50;;;0.50;;
22164;SDS011;11248;52.512;13.520;2022-09-21T16:21:27;0.43;;;0.43;;
22164;SDS011;11248;52.512;13.520;2022-09-21T16:23:57;0.73;;;0.55;;
22164;SDS011;11248;52.512;13.520;2022-09-21T16:26:36;1.40;;;0.70;;
22164;SDS011;11248;52.512;13.520;2022-09-21T16:29:16;1.08;;;0.70;;
22164;SDS011;11248;52.512;13.520;2022-09-21T16:31:43;1.23;;;0.70;;
22164;SDS011;11248;52.512;13.520;2022-09-21T16:34:22;1.45;;;0.75;;
22164;SDS011;11248;52.512;13.520;2022-09-21T16:36:56;2.00;;;0.80;;
22164;SDS011;11248;52.512;13.520;2022-09-21T16:39:22;0.50;;;0.50;;